Time;durP1;ratioP1;P1;durP2;ratioP2;P2;SDS_P1;SDS_P2;PMS_P1;PMS_P2;Temp;Humidity;BMP_temperature;BMP_pressure;BME280_temperature;BME280_humidity;BME280_pressure;Samples;Min_cycle;Max_cycle;Signal;HPM_P1;HPM_P2
2022/11/05 00:10:21;;;;;;;;;;;;;;;;;;5092078;27;20299;-66
2022/11/05 00:18:16;;;;;;;;;;;;;;;;;;5091336;28;19916;-66
2022/11/05 00:20:42;;;;;;;;;;;;;;;;;;5089506;28;20310;-66
2022/11/05 00:25:53;;;;;;;;;;;;;;;;;;5091168;28;19916;-66
2022/11/05 00:28:19;;;;;;;;;;;;;;;;;;5090572;28;19920;-66
2022/11/05 00:30:45;;;;;;;;;;;;;;;;;;5091067;28;19916;-66
2022/11/05 00:33:11;;;;;;;;;;;;;;;;;;5091066;28;20003;-66
2022/11/05 00:37:56;;;;;;;;;;;;;;;;;;5112195;27;20406;-66
2022/11/05 00:40:22;;;;;;;;;;;;;;;;;;5110505;28;20002;-66
2022/11/05 00:45:32;;;;;;;;;;;;;;;;;;5111770;28;19914;-66
2022/11/05 00:50:43;;;;;;;;;;;;;;;;;;5111608;28;19950;-66
2022/11/05 00:54:59;;;;;;;;;;;;;;;;;;5092225;27;19923;-66
2022/11/05 00:57:25;;;;;;;;;;;;;;;;;;5090884;28;20003;-66
2022/11/05 00:59:51;;;;;;;;;;;;;;;;;;5091347;28;19912;-67
2022/11/05 01:02:17;;;;;;;;;;;;;;;;;;5091598;28;19951;-66
2022/11/05 01:05:42;;;;;;;;;;;;;;;;;;5091658;27;19917;-66
2022/11/05 01:09:36;;;;;;;;;;;;;;;;;;5091765;27;19923;-66
2022/11/05 01:13:59;;;;;;;;;;;;;;;;;;5112284;27;20413;-68
2022/11/05 01:16:25;;;;;;;;;;;;;;;;;;5111316;28;20010;-66
2022/11/05 01:18:51;;;;;;;;;;;;;;;;;;5111737;28;20325;-66
2022/11/05 01:21:17;;;;;;;;;;;;;;;;;;5110295;28;20019;-66
2022/11/05 01:23:43;;;;;;;;;;;;;;;;;;5111160;28;19953;-66
2022/11/05 01:26:09;;;;;;;;;;;;;;;;;;5111632;28;19918;-66
2022/11/05 01:28:35;;;;;;;;;;;;;;;;;;5111524;28;19908;-66
2022/11/05 01:31:01;;;;;;;;;;;;;;;;;;5109823;28;19908;-66
2022/11/05 01:33:27;;;;;;;;;;;;;;;;;;5111381;28;19916;-66
2022/11/05 01:35:53;;;;;;;;;;;;;;;;;;5110113;28;20002;-66
2022/11/05 01:38:19;;;;;;;;;;;;;;;;;;5110938;28;19912;-66
2022/11/05 01:40:45;;;;;;;;;;;;;;;;;;5111545;28;20002;-66
2022/11/05 01:43:11;;;;;;;;;;;;;;;;;;5110323;28;19907;-65
2022/11/05 01:45:37;;;;;;;;;;;;;;;;;;5109538;28;20352;-65
2022/11/05 01:48:03;;;;;;;;;;;;;;;;;;5111296;28;20326;-66
2022/11/05 01:50:29;;;;;;;;;;;;;;;;;;5111071;28;19908;-67
2022/11/05 01:54:08;;;;;;;;;;;;;;;;;;5091478;27;19919;-66
2022/11/05 01:56:34;;;;;;;;;;;;;;;;;;5090128;28;19998;-66
2022/11/05 01:59:00;;;;;;;;;;;;;;;;;;5091140;28;19944;-66
2022/11/05 02:03:58;;;;;;;;;;;;;;;;;;5091710;27;19917;-66
2022/11/05 02:06:24;;;;;;;;;;;;;;;;;;5091068;28;20301;-66
2022/11/05 02:09:38;;;;;;;;;;;;;;;;;;5091968;27;19916;-66
2022/11/05 02:12:04;;;;;;;;;;;;;;;;;;5090143;28;20010;-66
2022/11/05 02:14:30;;;;;;;;;;;;;;;;;;5091007;28;19916;-66
2022/11/05 02:16:56;;;;;;;;;;;;;;;;;;5090052;28;19952;-66
2022/11/05 02:19:22;;;;;;;;;;;;;;;;;;5091248;28;20357;-66
2022/11/05 02:21:48;;;;;;;;;;;;;;;;;;5090853;28;19955;-67
2022/11/05 02:24:13;;;;;;;;;;;;;;;;;;5091359;28;20292;-66
2022/11/05 02:26:39;;;;;;;;;;;;;;;;;;5091158;28;19908;-67
2022/11/05 02:29:05;;;;;;;;;;;;;;;;;;5089312;28;19951;-66
2022/11/05 02:31:31;;;;;;;;;;;;;;;;;;5091085;28;19909;-67
2022/11/05 02:33:57;;;;;;;;;;;;;;;;;;5090593;28;20042;-67
2022/11/05 02:36:23;;;;;;;;;;;;;;;;;;5090962;28;19954;-66
2022/11/05 02:38:49;;;;;;;;;;;;;;;;;;5091026;28;19915;-66
2022/11/05 02:41:15;;;;;;;;;;;;;;;;;;5089207;28;20292;-66
2022/11/05 02:43:41;;;;;;;;;;;;;;;;;;5090801;28;19995;-66
2022/11/05 02:46:07;;;;;;;;;;;;;;;;;;5090798;28;19913;-66
2022/11/05 02:48:33;;;;;;;;;;;;;;;;;;5088952;28;19985;-66
2022/11/05 02:50:59;;;;;;;;;;;;;;;;;;5090712;28;19908;-66
2022/11/05 02:53:25;;;;;;;;;;;;;;;;;;5090722;28;19912;-66
2022/11/05 02:55:51;;;;;;;;;;;;;;;;;;5088938;28;19908;-66
2022/11/05 02:58:17;;;;;;;;;;;;;;;;;;5089306;28;19924;-66
2022/11/05 03:00:43;;;;;;;;;;;;;;;;;;5090561;28;19923;-66
2022/11/05 03:03:09;;;;;;;;;;;;;;;;;;5090091;28;19909;-66
2022/11/05 03:05:35;;;;;;;;;;;;;;;;;;5090410;28;19908;-66
2022/11/05 03:08:01;;;;;;;;;;;;;;;;;;5097560;28;19927;-66
2022/11/05 03:10:27;;;;;;;;;;;;;;;;;;5110357;28;20269;-66
2022/11/05 03:12:55;;;;;;;;;;;;;;;;;;5110615;28;19908;-66
2022/11/05 03:15:21;;;;;;;;;;;;;;;;;;5092338;28;19943;-66
2022/11/05 03:17:47;;;;;;;;;;;;;;;;;;5110027;28;19920;-66
2022/11/05 03:20:14;;;;;;;;;;;;;;;;;;5101219;28;19908;-66
2022/11/05 03:22:40;;;;;;;;;;;;;;;;;;5096825;28;19908;-66
2022/11/05 03:25:06;;;;;;;;;;;;;;;;;;5096461;28;19908;-66
2022/11/05 03:27:32;;;;;;;;;;;;;;;;;;5096696;28;19912;-66
2022/11/05 03:29:58;;;;;;;;;;;;;;;;;;5096756;28;19961;-66
2022/11/05 03:32:24;;;;;;;;;;;;;;;;;;5096232;28;19909;-66
2022/11/05 03:34:49;;;;;;;;;;;;;;;;;;5096575;28;19970;-66
2022/11/05 03:37:15;;;;;;;;;;;;;;;;;;5096181;28;19942;-66
2022/11/05 03:39:41;;;;;;;;;;;;;;;;;;5096534;28;19961;-66
2022/11/05 03:42:07;;;;;;;;;;;;;;;;;;5096527;28;19912;-66
2022/11/05 03:44:33;;;;;;;;;;;;;;;;;;5096228;28;19908;-66
2022/11/05 03:46:59;;;;;;;;;;;;;;;;;;5078212;28;19908;-67
2022/11/05 03:49:25;;;;;;;;;;;;;;;;;;5096373;28;19920;-66
2022/11/05 03:51:51;;;;;;;;;;;;;;;;;;5095816;28;19908;-66
2022/11/05 03:54:17;;;;;;;;;;;;;;;;;;5096338;28;19962;-66
2022/11/05 03:56:43;;;;;;;;;;;;;;;;;;5096419;28;19912;-66
2022/11/05 03:59:09;;;;;;;;;;;;;;;;;;5077555;28;19947;-66
2022/11/05 04:03:50;;;;;;;;;;;;;;;;;;5152895;27;20422;-66
2022/11/05 04:14:30;;;;;;;;;;;;;;;;;;5152468;27;19995;-66
2022/11/05 04:17:05;;;;;;;;;;;;;;;;;;5153165;27;20347;-66
2022/11/05 04:25:00;;;;;;;;;;;;;;;;;;5152626;27;19914;-66
2022/11/05 04:27:26;;;;;;;;;;;;;;;;;;5152083;27;19912;-66
2022/11/05 04:31:55;;;;;;;;;;;;;;;;;;5091605;27;19926;-66
2022/11/05 04:36:48;;;;;;;;;;;;;;;;;;5091486;27;19916;-66
2022/11/05 04:39:14;;;;;;;;;;;;;;;;;;5091334;28;19913;-66
2022/11/05 04:41:40;;;;;;;;;;;;;;;;;;5090998;28;19954;-66
2022/11/05 04:44:06;;;;;;;;;;;;;;;;;;5090002;28;20295;-66
2022/11/05 04:46:32;;;;;;;;;;;;;;;;;;5091253;28;19909;-66
2022/11/05 04:48:58;;;;;;;;;;;;;;;;;;5090701;28;19912;-66
2022/11/05 04:53:35;;;;;;;;;;;;;;;;;;5112149;27;20291;-67
2022/11/05 04:56:01;;;;;;;;;;;;;;;;;;5111366;28;20007;-66
2022/11/05 04:58:27;;;;;;;;;;;;;;;;;;5111703;28;19977;-66
2022/11/05 05:00:53;;;;;;;;;;;;;;;;;;5110392;28;19915;-66
2022/11/05 05:03:47;;;;;;;;;;;;;;;;;;5173562;27;20375;-66
2022/11/05 05:06:13;;;;;;;;;;;;;;;;;;5174129;27;19911;-67
2022/11/05 05:08:39;;;;;;;;;;;;;;;;;;5154600;27;19911;-66
2022/11/05 05:11:05;;;;;;;;;;;;;;;;;;5173715;27;19950;-68
2022/11/05 05:13:30;;;;;;;;;;;;;;;;;;5173953;27;19914;-67
2022/11/05 05:16:17;;;;;;;;;;;;;;;;;;5091224;28;19916;-66
2022/11/05 05:18:43;;;;;;;;;;;;;;;;;;5090034;28;19999;-67
2022/11/05 05:25:38;;;;;;;;;;;;;;;;;;5091578;27;19923;-66
2022/11/05 05:28:04;;;;;;;;;;;;;;;;;;5091362;28;20007;-67
2022/11/05 05:30:30;;;;;;;;;;;;;;;;;;5090926;28;19908;-67
2022/11/05 05:32:56;;;;;;;;;;;;;;;;;;5091244;28;19908;-67
2022/11/05 05:39:32;;;;;;;;;;;;;;;;;;5095838;27;2215176;-67
2022/11/05 05:41:58;;;;;;;;;;;;;;;;;;5155080;27;19911;-66
2022/11/05 05:44:24;;;;;;;;;;;;;;;;;;5173259;27;19911;-67
2022/11/05 05:47:33;;;;;;;;;;;;;;;;;;5153306;27;20022;-66
2022/11/05 05:49:59;;;;;;;;;;;;;;;;;;5153278;27;19959;-66
2022/11/05 05:54:34;;;;;;;;;;;;;;;;;;5091599;27;20384;-68
2022/11/05 05:57:00;;;;;;;;;;;;;;;;;;5091359;28;20012;-66
2022/11/05 05:59:26;;;;;;;;;;;;;;;;;;5090854;28;19908;-66
2022/11/05 06:01:52;;;;;;;;;;;;;;;;;;5090029;28;19944;-66
2022/11/05 06:04:18;;;;;;;;;;;;;;;;;;5089911;28;19909;-66
2022/11/05 06:06:45;;;;;;;;;;;;;;;;;;5090800;28;20418;-66
2022/11/05 06:09:11;;;;;;;;;;;;;;;;;;5091087;28;19961;-66
2022/11/05 06:11:37;;;;;;;;;;;;;;;;;;5091352;28;20003;-66
2022/11/05 06:14:03;;;;;;;;;;;;;;;;;;5090617;28;19916;-66
2022/11/05 06:16:33;;;;;;;;;;;;;;;;;;5091067;28;19908;-66
2022/11/05 06:18:59;;;;;;;;;;;;;;;;;;5091012;28;19923;-66
2022/11/05 06:21:25;;;;;;;;;;;;;;;;;;5091169;28;19916;-68
2022/11/05 06:23:51;;;;;;;;;;;;;;;;;;5090691;28;20036;-66
2022/11/05 06:28:13;;;;;;;;;;;;;;;;;;5091023;27;20258;-67
2022/11/05 06:30:39;;;;;;;;;;;;;;;;;;5089976;28;20011;-67
2022/11/05 06:33:05;;;;;;;;;;;;;;;;;;5090974;28;19915;-68
2022/11/05 06:35:31;;;;;;;;;;;;;;;;;;5091285;28;19915;-67
2022/11/05 06:37:57;;;;;;;;;;;;;;;;;;5090022;28;20002;-67
2022/11/05 06:40:23;;;;;;;117.13;109.10;;;;;;;;;;5089263;28;20911;-67
2022/11/05 06:43:33;;;;;;;;;;;;;;;;;;5091966;27;19923;-67
2022/11/05 06:45:59;;;;;;;;;;;;;;;;;;5091376;28;20003;-67
2022/11/05 06:48:25;;;;;;;;;;;;;;;;;;5091006;28;19959;-67
2022/11/05 06:50:51;;;;;;;;;;;;;;;;;;5091550;28;19909;-67
2022/11/05 06:53:17;;;;;;;;;;;;;;;;;;5091189;28;19908;-67
2022/11/05 06:55:43;;;;;;;;;;;;;;;;;;5090891;28;19920;-67
2022/11/05 07:01:45;;;;;;;;;;;;;;;;;;5112003;27;19918;-66
2022/11/05 07:04:11;;;;;;;;;;;;;;;;;;5111729;28;20023;-67
2022/11/05 07:06:37;;;;;;;;;;;;;;;;;;5111670;28;19908;-67
2022/11/05 07:09:03;;;;;;;;;;;;;;;;;;5111493;28;19908;-67
2022/11/05 07:11:29;;;;;;;;;;;;;;;;;;5111595;28;20422;-67
2022/11/05 07:13:55;;;;;;;;;;;;;;;;;;5111685;28;19912;-67
2022/11/05 07:16:21;;;;;;;;;;;;;;;;;;5109903;28;20288;-67
2022/11/05 07:18:47;;;;;;;;;;;;;;;;;;5111482;28;19959;-67
2022/11/05 07:21:14;;;;;;;;;;;;;;;;;;5111401;28;19978;-67
2022/11/05 07:23:40;;;;;;;;;;;;;;;;;;5110732;28;19915;-67
2022/11/05 07:26:06;;;;;;;;;;;;;;;;;;5111336;28;19908;-68
2022/11/05 07:31:05;;;;;;;;;;;;;;;;;;5111248;27;19919;-67
2022/11/05 07:33:31;;;;;;;;;;;;;;;;;;5110444;28;20350;-67
2022/11/05 07:35:57;;;;;;;;;;;;;;;;;;5111664;28;19907;-66
2022/11/05 07:38:23;;;;;;;;;;;;;;;;;;5111210;28;19912;-67
2022/11/05 07:40:49;;;;;;;;;;;;;;;;;;5111652;28;20040;-67
2022/11/05 07:43:15;;;;;;;;;;;;;;;;;;5111552;28;20367;-67
2022/11/05 07:45:41;;;;;;;;;;;;;;;;;;5111361;28;19953;-67
2022/11/05 07:48:07;;;;;;;;;;;;;;;;;;5111455;28;20010;-67
2022/11/05 07:50:33;;;;;;;;;;;;;;;;;;5109542;28;19920;-67
2022/11/05 07:52:59;;;;;;;;;;;;;;;;;;5111391;28;19915;-67
2022/11/05 07:55:24;;;;;;;;;;;;;;;;;;5110027;28;19939;-67
2022/11/05 07:57:50;;;;;;;;;;;;;;;;;;5109572;28;19908;-67
2022/11/05 08:00:16;;;;;;;;;;;;;;;;;;5109910;28;20371;-67
2022/11/05 08:02:42;;;;;;;;;;;;;;;;;;5111172;28;19998;-67
2022/11/05 08:05:08;;;;;;;;;;;;;;;;;;5109620;28;19970;-67
2022/11/05 08:07:34;;;;;;;;;;;;;;;;;;5109860;28;19907;-67
2022/11/05 08:10:03;;;;;;;;;;;;;;;;;;5110887;28;19986;-68
2022/11/05 08:14:01;;;;;;;;;;;;;;;;;;5112597;27;19923;-67
2022/11/05 08:16:27;;;;;;;;;;;;;;;;;;5110428;28;20350;-66
2022/11/05 08:18:53;;;;;;;;;;;;;;;;;;5110063;28;19922;-66
2022/11/05 08:21:19;;;;;;;;;;;;;;;;;;5110339;28;19908;-66
2022/11/05 08:23:45;;;;;;;;;;;;;;;;;;5111960;28;20398;-66
2022/11/05 08:26:11;;;;;;;;;;;;;;;;;;5111080;28;19912;-66
2022/11/05 08:28:37;;;;;;;;;;;;;;;;;;5111398;28;19908;-66
2022/11/05 08:34:44;;;;;;;;;;;;;;;;;;5091069;27;19923;-66
2022/11/05 08:37:10;;;;;;;;;;;;;;;;;;5091362;28;20007;-66
2022/11/05 08:39:52;;;;;;;;;;;;;;;;;;5091261;27;19916;-67
2022/11/05 08:42:18;;;;;;;;;;;;;;;;;;5091287;28;20003;-67
2022/11/05 08:44:44;;;;;;;;;;;;;;;;;;5091292;28;19908;-67
2022/11/05 08:49:36;;;;;;;;;;;;;;;;;;5091459;27;20384;-67
2022/11/05 08:57:15;;;;;;;;;;;;;;;;;;5153130;27;20331;-67
2022/11/05 09:00:35;;;;;;;;;;;;;;;;;;5091726;27;19916;-68
2022/11/05 09:05:04;;;;;;;;;;;;;;;;;;5112523;27;19916;-68
2022/11/05 09:07:30;;;;;;;;;;;;;;;;;;5111567;28;19999;-68
2022/11/05 09:09:56;;;;;;;;;;;;;;;;;;5111191;28;19970;-66
2022/11/05 09:12:22;;;;;;;;;;;;;;;;;;5111536;28;19908;-66
2022/11/05 09:15:26;;;;;;;;;;;;;;;;;;5111850;27;20298;-68
2022/11/05 09:20:06;;;;;;;;;;;;;;;;;;5092269;27;19916;-66
2022/11/05 09:23:24;;;;;;;;;;;;;;;;;;5091067;27;20371;-67
2022/11/05 09:25:49;;;;;;;;;;;;;;;;;;5091244;28;20003;-67
2022/11/05 09:28:40;;;;;;;;;;;;;;;;;;5091479;27;19916;-68
2022/11/05 09:32:01;;;;;;;;;;;;;;;;;;5092163;27;19922;-67
2022/11/05 09:36:12;;;;;;;;;;;;;;;;;;5091468;27;19920;-66
2022/11/05 09:40:31;;;;;;;;;;;;;;;;;;5091567;27;19916;-67
2022/11/05 09:42:57;;;;;;;;;;;;;;;;;;5091149;28;20030;-67
2022/11/05 09:45:42;;;;;;;;;;;;;;;;;;5091810;27;19917;-67
2022/11/05 09:48:08;;;;;;;;;;;;;;;;;;5091561;28;19912;-66
2022/11/05 09:53:13;;;;;;;;;;;;;;;;;;5092209;27;19912;-66
2022/11/05 09:55:39;;;;;;;;;;;;;;;;;;5090115;28;20431;-67
2022/11/05 09:59:12;;;;;;;;;;;;;;;;;;5091082;27;19922;-67
2022/11/05 10:05:31;;;;;;;;;;;;;;;;;;5091238;27;20307;-68
2022/11/05 10:07:57;;;;;;;;;;;;;;;;;;5091293;28;20007;-68
2022/11/05 10:10:23;;;;;;;;;;;;;;;;;;5091322;28;19931;-67
2022/11/05 10:12:48;;;;;;;;;;;;;;;;;;5091067;28;20368;-68
2022/11/05 10:15:14;;;;;;;;;;;;;;;;;;5091231;28;19915;-68
2022/11/05 10:17:40;;;;;;;;;;;;;;;;;;5091731;28;19947;-68
2022/11/05 10:20:06;;;;;;;;;;;;;;;;;;5090799;28;19908;-69
2022/11/05 10:23:49;;;;;;;;;;;;;;;;;;5091530;27;19916;-67
2022/11/05 10:26:15;;;;;;;;;;;;;;;;;;5091198;28;20007;-68
2022/11/05 10:28:41;;;;;;;;;;;;;;;;;;5091286;28;19916;-68
2022/11/05 10:31:07;;;;;;;;;;;;;;;;;;5089998;28;19939;-68
2022/11/05 10:33:33;;;;;;;;;;;;;;;;;;5089905;28;19923;-68
2022/11/05 10:35:59;;;;;;;;;;;;;;;;;;5091389;28;20352;-69
2022/11/05 10:38:25;;;;;;;;;;;;;;;;;;5091103;28;20288;-69
2022/11/05 10:40:51;;;;;;;;;;;;;;;;;;5090664;28;19944;-68
2022/11/05 10:43:17;;;;;;;;;;;;;;;;;;5091035;28;19923;-68
2022/11/05 10:45:42;;;;;;;;;;;;;;;;;;5089702;28;20462;-68
2022/11/05 10:48:08;;;;;;;;;;;;;;;;;;5090555;28;20299;-68
2022/11/05 10:50:34;;;;;;;;;;;;;;;;;;5090958;28;20261;-68
2022/11/05 10:53:00;;;;;;;;;;;;;;;;;;5090869;28;19955;-66
2022/11/05 10:55:26;;;;;;;;;;;;;;;;;;5090423;28;19908;-68
2022/11/05 10:57:52;;;;;;;;;;;;;;;;;;5090801;28;20369;-69
2022/11/05 11:00:18;;;;;;;;;;;;;;;;;;5090323;28;20292;-66
2022/11/05 11:02:44;;;;;;;;;;;;;;;;;;5090653;28;19920;-68
2022/11/05 11:06:50;;;;;;;;;;;;;;;;;;5091854;27;19922;-67
2022/11/05 11:09:16;;;;;;;;;;;;;;;;;;5091111;28;20007;-67
2022/11/05 11:11:42;;;;;;;;;;;;;;;;;;5091358;28;19954;-67
2022/11/05 11:17:47;;;;;;;;;;;;;;;;;;5132785;27;19969;-67
2022/11/05 11:20:33;;;;;;;;;;;;;;;;;;5112580;27;19916;-66
2022/11/05 11:22:59;;;;;;;;;;;;;;;;;;5111377;28;20347;-67
2022/11/05 11:25:25;;;;;;;;;;;;;;;;;;5111625;28;19908;-67
2022/11/05 11:27:51;;;;;;;;;;;;;;;;;;5111620;28;20329;-67
2022/11/05 11:30:17;;;;;;;;;;;;;;;;;;5111236;28;20283;-67
2022/11/05 11:32:43;;;;;;;;;;;;;;;;;;5111562;28;19912;-67
2022/11/05 11:35:09;;;;;;;;;;;;;;;;;;5110188;28;19908;-67
2022/11/05 11:37:36;;;;;;;;;;;;;;;;;;5110949;28;19923;-67
2022/11/05 11:40:02;;;;;;;;;;;;;;;;;;5111528;28;19923;-67
2022/11/05 11:42:39;;;;;;;;;;;;;;;;;;5071002;28;19923;-68
2022/11/05 11:45:05;;;;;;;;;;;;;;;;;;5071140;28;19913;-67
2022/11/05 11:47:31;;;;;;;;;;;;;;;;;;5071688;28;19909;-67
2022/11/05 11:49:57;;;;;;;;;;;;;;;;;;5070597;28;20396;-67
2022/11/05 11:52:23;;;;;;;;;;;;;;;;;;5070959;28;20312;-67
2022/11/05 11:55:56;;;;;;;;;;;;;;;;;;5173775;27;20374;-66
2022/11/05 11:58:22;;;;;;;;;;;;;;;;;;5173279;27;19911;-67
2022/11/05 12:00:48;;;;;;;;;;;;;;;;;;5154923;27;20341;-67
2022/11/05 12:03:14;;;;;;;;;;;;;;;;;;5173601;27;19917;-67
2022/11/05 12:05:41;;;;;;;;;;;;;;;;;;5173189;27;20302;-67
2022/11/05 12:08:06;;;;;;;;;;;;;;;;;;5173570;27;20374;-67
2022/11/05 12:10:32;;;;;;;;;;;;;;;;;;5173692;27;19907;-67
2022/11/05 12:12:58;;;;;;;;;;;;;;;;;;5173102;27;20414;-67
2022/11/05 12:15:24;;;;;;;;;;;;;;;;;;5173229;27;19915;-67
2022/11/05 12:18:05;;;;;;;;;;;;;;;;;;5111990;27;19912;-67
2022/11/05 12:20:31;;;;;;;;;;;;;;;;;;5111778;28;20464;-68
2022/11/05 12:22:57;;;;;;;;;;;;;;;;;;5111596;28;19929;-68
2022/11/05 12:25:23;;;;;;;;;;;;;;;;;;5111263;28;19954;-68
2022/11/05 12:29:39;;;;;;;;;;;;;;;;;;5112184;27;19922;-66
2022/11/05 12:32:05;;;;;;;;;;;;;;;;;;5111494;28;19918;-68
2022/11/05 12:34:31;;;;;;;;;;;;;;;;;;5111736;28;19912;-67
2022/11/05 12:36:57;;;;;;;;;;;;;;;;;;5110291;28;19915;-67
2022/11/05 12:39:23;;;;;;;;;;;;;;;;;;5111155;28;19908;-67
2022/11/05 12:41:49;;;;;;;;;;;;;;;;;;5110233;28;20010;-67
2022/11/05 12:44:15;;;;;;;;;;;;;;;;;;5111438;28;20292;-68
2022/11/05 12:46:41;;;;;;;;;;;;;;;;;;5110987;28;19908;-68
2022/11/05 12:49:07;;;;;;;;;;;;;;;;;;5111346;28;19923;-68
2022/11/05 12:51:33;;;;;;;;;;;;;;;;;;5111328;28;19909;-68
2022/11/05 12:53:59;;;;;;;;;;;;;;;;;;5111104;28;19912;-68
2022/11/05 12:56:25;;;;;;;;;;;;;;;;;;5111297;28;19908;-68
2022/11/05 12:58:51;;;;;;;;;;;;;;;;;;5111237;28;19908;-68
2022/11/05 13:01:17;;;;;;;;;;;;;;;;;;5111032;28;19908;-67
2022/11/05 13:03:43;;;;;;;;;;;;;;;;;;5109828;28;19908;-67
2022/11/05 13:06:09;;;;;;;;;;;;;;;;;;5109748;28;19916;-67
2022/11/05 13:08:34;;;;;;;;;;;;;;;;;;5110553;28;19916;-67
2022/11/05 13:11:00;;;;;;;;;;;;;;;;;;5111067;28;19908;-67
2022/11/05 13:13:26;;;;;;;;;;;;;;;;;;5110912;28;19999;-67
2022/11/05 13:15:52;;;;;;;;;;;;;;;;;;5110516;28;19915;-68
2022/11/05 13:18:18;;;;;;;;;;;;;;;;;;5109634;28;19912;-67
2022/11/05 13:20:44;;;;;;;;;;;;;;;;;;5111094;28;19915;-68
2022/11/05 13:26:57;;;;;;;;;;;;;;;;;;5091641;27;19971;-66
2022/11/05 13:29:23;;;;;;;;;;;;;;;;;;5091021;28;20011;-67
2022/11/05 13:34:02;;;;;;;;;;;;;;;;;;5091863;27;19916;-67
2022/11/05 13:42:08;;;;;;;;;;;;;;;;;;5091292;27;19916;-66
2022/11/05 13:44:34;;;;;;;;;;;;;;;;;;5091348;28;20007;-66
2022/11/05 13:47:00;;;;;;;;;;;;;;;;;;5091306;28;19962;-67
2022/11/05 13:49:26;;;;;;;;;;;;;;;;;;5090808;28;20004;-67
2022/11/05 13:53:04;;;;;;;;;;;;;;;;;;5091503;27;19927;-67
2022/11/05 13:56:38;;;;;;;;;;;;;;;;;;5091640;27;19917;-66
2022/11/05 14:04:08;;;;;;;;;;;;;;;;;;5091476;27;19923;-67
2022/11/05 14:08:33;;;;;;;;;;;;;;;;;;5112300;27;19916;-66
2022/11/05 14:10:59;;;;;;;;;;;;;;;;;;5111311;28;20340;-66
2022/11/05 14:13:25;;;;;;;;;;;;;;;;;;5110364;28;19908;-66
2022/11/05 14:17:42;;;;;;;;;;;;;;;;;;5173854;27;20030;-66
2022/11/05 14:20:52;;;;;;;;;;;;;;;;;;5112026;27;20409;-67
2022/11/05 14:36:51;;;;;;;;;;;;;;;;;;5112340;27;19918;-66
2022/11/05 14:39:18;;;;;;;;;;;;;;;;;;5111531;28;20276;-67
2022/11/05 14:42:57;;;;;;;;;;;;;;;;;;5112174;27;20391;-66
2022/11/05 14:45:23;;;;;;;;;;;;;;;;;;5111315;28;19999;-67
2022/11/05 14:47:49;;;;;;;;;;;;;;;;;;5111630;28;19908;-67
2022/11/05 14:50:15;;;;;;;;;;;;;;;;;;5111652;28;19908;-66
2022/11/05 14:52:41;;;;;;;;;;;;;;;;;;5111257;28;19912;-67
2022/11/05 14:59:37;;;;;;;;;;;;;;;;;;5090981;27;19916;-67
2022/11/05 15:04:08;;;;;;;;;;;;;;;;;;5091912;27;19939;-66
2022/11/05 15:06:34;;;;;;;;;;;;;;;;;;5089658;28;20007;-66
2022/11/05 15:09:35;;;;;;;;;;;;;;;;;;5133016;27;19922;-67
2022/11/05 15:14:39;;;;;;;;;;;;;;;;;;5091128;27;19922;-68
2022/11/05 15:19:25;;;;;;;;;;;;;;;;;;5091708;27;20380;-67
2022/11/05 15:21:51;;;;;;;;;;;;;;;;;;5090905;28;20010;-66
2022/11/05 15:24:17;;;;;;;;;;;;;;;;;;5091810;28;20306;-66
2022/11/05 15:31:55;;;;;;;;;;;;;;;;;;5091699;28;19916;-66
2022/11/05 15:34:21;;;;;;;;;;;;;;;;;;5091380;28;20019;-69
2022/11/05 15:36:47;;;;;;;;;;;;;;;;;;5090856;28;19908;-67
2022/11/05 15:39:13;;;;;;;;;;;;;;;;;;5091568;28;19909;-67
2022/11/05 15:41:39;;;;;;;;;;;;;;;;;;5090765;28;19916;-69
2022/11/05 15:44:05;;;;;;;;;;;;;;;;;;5091111;28;19912;-67
2022/11/05 15:47:37;;;;;;;;;;;;;;;;;;5091405;27;20307;-67
2022/11/05 15:54:20;;;;;;;;;;;;;;;;;;5091655;27;19918;-67
2022/11/05 16:00:49;;;;;;;;;;;;;;;;;;5092074;27;19923;-68
2022/11/05 16:05:29;;;;;;;;;;;;;;;;;;5111883;27;20328;-68
2022/11/05 16:07:54;;;;;;;;;;;;;;;;;;5111750;28;19999;-68
2022/11/05 16:10:20;;;;;;;;;;;;;;;;;;5111243;28;20364;-67
2022/11/05 16:12:46;;;;;;;;;;;;;;;;;;5110361;28;20279;-68
2022/11/05 16:15:12;;;;;;;;;;;;;;;;;;5111595;28;19962;-68
2022/11/05 16:17:38;;;;;;;;;;;;;;;;;;5111136;28;19918;-68
2022/11/05 16:20:04;;;;;;;;;;;;;;;;;;5111509;28;19930;-68
2022/11/05 16:22:30;;;;;;;;;;;;;;;;;;5111419;28;19908;-67
2022/11/05 16:24:56;;;;;;;;;;;;;;;;;;5111015;28;19923;-67
2022/11/05 16:27:22;;;;;;;;;;;;;;;;;;5111506;28;19908;-68
2022/11/05 16:29:48;;;;;;;;;;;;;;;;;;5111360;28;19919;-68
2022/11/05 16:32:14;;;;;;;;;;;;;;;;;;5111048;28;19914;-67
2022/11/05 16:36:35;;;;;;;;;;;;;;;;;;5092213;27;20002;-67
2022/11/05 16:39:01;;;;;;;;;;;;;;;;;;5090975;28;19950;-67
2022/11/05 16:41:27;;;;;;;;;;;;;;;;;;5091290;28;19916;-67
2022/11/05 16:44:28;;;;;;;;;;;;;;;;;;5111989;27;19916;-67
2022/11/05 16:46:54;;;;;;;;;;;;;;;;;;5111344;28;19959;-68
2022/11/05 16:52:32;;;;;;;;;;;;;;;;;;5111825;27;19916;-69
2022/11/05 16:54:58;;;;;;;;;;;;;;;;;;5111631;28;19995;-67
2022/11/05 16:57:24;;;;;;;;;;;;;;;;;;5111691;28;19954;-67
2022/11/05 16:59:50;;;;;;;;;;;;;;;;;;5111282;28;19908;-67
2022/11/05 17:02:16;;;;;;;;;;;;;;;;;;5111707;28;19944;-67
2022/11/05 17:09:06;;;;;;;;;;;;;;;;;;5091908;27;19919;-66
2022/11/05 17:11:32;;;;;;;;;;;;;;;;;;5090168;28;19913;-67
2022/11/05 17:13:58;;;;;;;;;;;;;;;;;;5090931;28;19916;-67
2022/11/05 17:16:25;;;;;;;;;;;;;;;;;;5091324;28;19920;-67
2022/11/05 17:19:59;;;;;;;;;;;;;;;;;;5112119;27;19938;-66
2022/11/05 17:22:50;;;;;;;;;;;;;;;;;;5091407;27;19917;-68
2022/11/05 17:25:40;;;;;;;;;;;;;;;;;;5091921;27;19922;-68
2022/11/05 17:28:06;;;;;;;;;;;;;;;;;;5091015;28;20350;-68
2022/11/05 17:30:32;;;;;;;;;;;;;;;;;;5090086;28;19908;-69
2022/11/05 17:32:58;;;;;;;;;;;;;;;;;;5091256;28;19908;-68
2022/11/05 17:35:24;;;;;;;;;;;;;;;;;;5090975;28;19909;-68
2022/11/05 17:39:01;;;;;;;;;;;;;;;;;;5152887;27;20010;-67
2022/11/05 17:42:39;;;;;;;;;;;;;;;;;;5091202;28;19923;-67
2022/11/05 17:45:05;;;;;;;;;;;;;;;;;;5091318;28;20007;-67
2022/11/05 17:47:31;;;;;;;;;;;;;;;;;;5091458;28;19912;-67
2022/11/05 17:49:57;;;;;;;;;;;;;;;;;;5090803;28;19908;-66
2022/11/05 17:52:23;;;;;;;;;;;;;;;;;;5091391;28;19915;-66
2022/11/05 17:54:49;;;;;;;;;;;;;;;;;;5091208;28;19912;-67
2022/11/05 17:57:15;;;;;;;;;;;;;;;;;;5090935;28;20432;-66
2022/11/05 17:59:41;;;;;;;;;;;;;;;;;;5091030;28;19909;-68
2022/11/05 18:02:07;;;;;;;;;;;;;;;;;;5090898;28;20262;-67
2022/11/05 18:04:33;;;;;;;;;;;;;;;;;;5090547;28;19915;-67
2022/11/05 18:06:59;;;;;;;;;;;;;;;;;;5089675;28;20437;-67
2022/11/05 18:09:25;;;;;;;;;;;;;;;;;;5090545;28;19912;-67
2022/11/05 18:11:51;;;;;;;;;;;;;;;;;;5090886;28;20000;-68
2022/11/05 18:14:17;;;;;;;;;;;;;;;;;;5089547;28;19916;-67
2022/11/05 18:16:43;;;;;;;;;;;;;;;;;;5090782;28;19908;-67
2022/11/05 18:19:09;;;;;;;;;;;;;;;;;;5090694;28;19916;-66
2022/11/05 18:21:35;;;;;;;;;;;;;;;;;;5091065;28;20378;-66
2022/11/05 18:24:01;;;;;;;;;;;;;;;;;;5090158;28;20265;-66
2022/11/05 18:26:26;;;;;;;;;;;;;;;;;;5089340;28;19919;-67
2022/11/05 18:30:51;;;;;;;;;;;;;;;;;;5091445;27;19917;-66
2022/11/05 18:33:17;;;;;;;;;;;;;;;;;;5091326;28;20349;-67
2022/11/05 18:35:43;;;;;;;;;;;;;;;;;;5091168;28;19908;-68
2022/11/05 18:38:09;;;;;;;;;;;;;;;;;;5091053;28;19915;-66
2022/11/05 18:40:35;;;;;;;;;;;;;;;;;;5091448;28;19909;-66
2022/11/05 18:43:01;;;;;;;;;;;;;;;;;;5091136;28;19913;-66
2022/11/05 18:45:27;;;;;;;;;;;;;;;;;;5090719;28;19961;-67
2022/11/05 18:47:53;;;;;;;;;;;;;;;;;;5091084;28;19923;-68
2022/11/05 18:50:19;;;;;;;;;;;;;;;;;;5091160;28;20003;-66
2022/11/05 18:52:45;;;;;;;;;;;;;;;;;;5090633;28;20287;-68
2022/11/05 18:55:11;;;;;;;;;;;;;;;;;;5090896;28;19913;-67
2022/11/05 18:59:56;;;;;;;;;;;;;;;;;;5111381;27;19916;-67
2022/11/05 19:04:30;;;;;;;;;;;;;;;;;;5091699;27;19916;-67
2022/11/05 19:06:56;;;;;;;;;;;;;;;;;;5090898;28;20448;-67
2022/11/05 19:09:22;;;;;;;;;;;;;;;;;;5091132;28;19908;-67
2022/11/05 19:11:48;;;;;;;;;;;;;;;;;;5091209;28;19908;-67
2022/11/05 19:14:14;;;;;;;;;;;;;;;;;;5090749;28;19995;-67
2022/11/05 19:16:40;;;;;;;;;;;;;;;;;;5091055;28;19912;-67
2022/11/05 19:19:06;;;;;;;;;;;;;;;;;;5089776;28;19912;-68
2022/11/05 19:22:25;;;;;;;;;;;;;;;;;;5092052;28;19939;-68
2022/11/05 19:24:51;;;;;;;;;;;;;;;;;;5090025;28;20428;-68
2022/11/05 19:27:17;;;;;;;;;;;;;;;;;;5090785;28;19916;-68
2022/11/05 19:29:43;;;;;;;;;;;;;;;;;;5091151;28;19916;-68
2022/11/05 19:32:09;;;;;;;;;;;;;;;;;;5091170;28;20340;-68
2022/11/05 19:34:35;;;;;;;;;;;;;;;;;;5089439;28;19919;-69
2022/11/05 19:37:01;;;;;;;;;;;;;;;;;;5091648;28;19908;-68
2022/11/05 19:41:21;;;;;;;;;;;;;;;;;;5091379;27;19922;-68
2022/11/05 19:44:33;;;;;;;;;;;;;;;;;;5091666;27;19916;-67
2022/11/05 19:46:59;;;;;;;;;;;;;;;;;;5091253;28;20007;-67
2022/11/05 19:49:27;;;;;;;;;;;;;;;;;;5089530;28;19916;-67
2022/11/05 19:53:18;;;;;;;;;;;;;;;;;;5091693;27;20299;-68
2022/11/05 19:55:44;;;;;;;;;;;;;;;;;;5090961;28;20011;-68
2022/11/05 19:58:10;;;;;;;;;;;;;;;;;;5090000;28;19908;-67
2022/11/05 20:01:26;;;;;;;;;;;;;;;;;;5092087;27;20292;-67
2022/11/05 20:03:52;;;;;;;;;;;;;;;;;;5089652;28;20002;-67
2022/11/05 20:06:56;;;;;;;;;;;;;;;;;;5072037;28;19923;-67
2022/11/05 20:11:39;;;;;;;;;;;;;;;;;;5111756;27;20391;-65
2022/11/05 20:14:05;;;;;;;;;;;;;;;;;;5111763;28;20280;-66